Flight Track Log - Related Links

Times and Time Zones

All times are in EDT time to prevent confusion due to time zone crossing. See the UAL4257 flight status page for this flight to view local times or setup timezone preferences in your user account.


Time Position Orientation Groundspeed Altitude Reporting Facility
EDT Latitude Longitude Course Direction KTS MPH feet Rate Location/Type
Wed 12:25:00 PM 26.2751 -99.5719 44° Northeast  Level Estimated
Wed 12:25:44 PM 26.0583 -99.9222 44° Northeast 310 357 13,200  Level Houston Center
Wed 12:26:00 PM 26.3487 -99.4921 44° Northeast  Level Estimated
Wed 12:26:46 PM 26.1136 -99.8333 55° Northeast 330 380 14,200  Level Houston Center
Wed 12:27:00 PM 26.4223 -99.4121 44° Northeast  Level Estimated
Wed 12:27:49 PM 26.1722 -99.7367 56° Northeast 353 406 15,300  Level Houston Center
Wed 12:28:00 PM 26.4958 -99.3321 44° Northeast  Level Estimated
Wed 12:28:51 PM 26.2317 -99.6364 57° Northeast 371 427 16,400  Level Houston Center
Wed 12:29:00 PM 26.5692 -99.2519 44° Northeast  Level Estimated
Wed 12:29:54 PM 26.2936 -99.5333 56° Northeast 386 444 17,400  Level Houston Center
Wed 12:30:00 PM 26.6426 -99.1717 44° Northeast  Level Estimated
Wed 12:30:55 PM 26.3692 -99.4078 56° Northeast 399 459 18,600  Level Houston Center
Wed 12:31:00 PM 26.7160 -99.0913 44° Northeast  Level Estimated
Wed 12:31:57 PM 26.4325 -99.3025 56° Northeast 405 466 19,700  Level Houston Center
Wed 12:32:59 PM 26.5119 -99.2069 47° Northeast 414 476 20,700 1,016 Climbing Houston Center
Wed 12:34:01 PM 26.5919 -99.1122 47° Northeast 418 481 21,800 1,016 Climbing Houston Center
Wed 12:35:03 PM 26.6711 -99.0136 48° Northeast 422 486 22,800 1,113 Climbing Houston Center
Wed 12:36:05 PM 26.7669 -98.8947 48° Northeast 427 491 24,100 1,152 Climbing Houston Center
Wed 12:37:08 PM 26.8586 -98.8081 40° Northeast 432 497 25,200 1,200 Climbing Houston Center
Wed 12:38:10 PM 26.9489 -98.7225 40° Northeast 429 494 26,600 1,306 Climbing Houston Center
Wed 12:39:12 PM 27.0381 -98.6378 40° Northeast 425 489 27,900 1,258 Climbing Houston Center
Wed 12:40:14 PM 27.1253 -98.5542 40° Northeast 418 481 29,200 1,355 Climbing Houston Center
Wed 12:41:16 PM 27.2311 -98.4517 41° Northeast 420 483 30,700 1,306 Climbing Houston Center
Wed 12:42:18 PM 27.3194 -98.3683 40° Northeast 419 482 31,900 1,065 Climbing Houston Center
Wed 12:43:20 PM 27.4086 -98.2817 41° Northeast 423 487 32,900 532 Climbing Houston Center
Wed 12:44:22 PM 27.5014 -98.1917 41° Northeast 438 504 33,000 48 Climbing Houston Center
Wed 12:45:24 PM 27.6006 -98.0944 41° Northeast 465 535 33,000  Level Houston Center
Wed 12:46:26 PM 27.7044 -97.9956 40° Northeast 483 556 33,000  Level Houston Center
Wed 12:47:29 PM 27.8297 -97.8742 41° Northeast 493 567 33,000  Level Houston Center
Wed 12:48:30 PM 27.9314 -97.7758 41° Northeast 486 559 33,000  Level Houston Center
Wed 12:49:32 PM 28.0289 -97.6808 41° Northeast 483 556 33,000  Level Houston Center
Wed 12:50:34 PM 28.1294 -97.5817 41° Northeast 481 554 33,000  Level Houston Center
Wed 12:51:36 PM 28.2514 -97.4644 40° Northeast 478 550 33,000  Level Houston Center
Wed 12:52:37 PM 28.3514 -97.3653 41° Northeast 478 550 33,000  Level Houston Center
Wed 12:53:39 PM 28.4508 -97.2650 42° Northeast 478 550 33,000  Level Houston Center
Wed 12:54:41 PM 28.5519 -97.1667 40° Northeast 479 551 33,000  Level Houston Center
Wed 12:55:43 PM 28.6511 -97.0675 41° Northeast 477 549 33,000 -290 Level Houston Center
Wed 12:56:45 PM 28.7511 -96.9683 41° Northeast 478 550 32,400 -1,839 Descending Houston Center
Wed 12:57:47 PM 28.8692 -96.8506 41° Northeast 473 544 29,200 -2,903 Descending Houston Center
Wed 12:58:49 PM 28.9642 -96.7547 41° Northeast 464 534 26,400 -2,710 Descending Houston Center
Wed 12:59:51 PM 29.0583 -96.6606 41° Northeast 456 525 23,600 -2,710 Descending Houston Center
Wed 01:00:53 PM 29.1514 -96.5667 41° Northeast 452 520 20,800 -2,634 Descending Houston Center
Wed 01:01:54 PM 29.2433 -96.4736 41° Northeast 447 514 18,200 -2,506 Descending Houston Center
Wed 01:02:12 PM 29.2808 -96.4356 42° Northeast 445 512 17,500 -2,710 Descending Houston Center
Wed 01:02:56 PM 29.3517 -96.3642 41° Northeast 440 506 15,400 -2,660 Descending Houston Center
Wed 01:03:58 PM 29.4350 -96.2797 41° Northeast 406 467 12,800 -1,694 Descending Houston Center
Wed 01:05:00 PM 29.5161 -96.1967 42° Northeast 395 455 11,900 -726 Descending Houston Center
Wed 01:06:02 PM 29.5786 -96.1006 53° Northeast 376 433 11,300 -726 Descending Houston Center
Wed 01:07:04 PM 29.6278 -96.0019 60° Northeast 359 413 10,400 -871 Descending Houston Center
Wed 01:08:06 PM 29.6836 -95.8964 59° Northeast 295 339 9,500 -1,065 Descending Houston Center
Wed 01:09:08 PM 29.7228 -95.8122 62° Northeast 301 346 8,200 -1,180 Descending Houston Center
Wed 01:10:08 PM 29.7656 -95.7281 60° Northeast 293 337 7,100 -1,148 Descending Houston Center
Wed 01:11:03 PM 29.8031 -95.6564 59° Northeast 282 325 6,000 -590 Descending Houston Center
Wed 01:12:10 PM 29.8442 -95.5744 60° Northeast 277 319 5,900  Descending Houston Center
Wed 01:13:05 PM 29.8797 -95.5028 60° Northeast 279 321 6,000  Climbing Houston Center
Wed 01:14:06 PM 29.8950 -95.4167 78° East 277 319 5,900  Descending Houston Center
Wed 01:15:13 PM 29.8958 -95.3131 89° East 281 323 6,000  Climbing Houston Center
Wed 01:16:14 PM 29.9003 -95.2233 87° East 276 318 5,900 -938 Descending Houston Center
Wed 01:17:21 PM 29.9594 -95.2039 16° North 185 213 4,000 -1,475 Descending Houston Center
Wed 01:18:16 PM 29.9892 -95.2317 321° Northwest 131 151 2,900 -1,418 Descending Houston Center
Wed 01:19:11 PM 29.9925 -95.2675 276° West 142 163 1,400 -1,636 Descending Houston Center

Login

Don't have an account? Register now (free) for customized features, flight alerts, and more!